Ada, West Virginia
Current Conditions -  °F | °C
As of 2:52 PM on Tuesday 21 Oct 2014 (Local Time) from KBLF Reporting Station
Overcast Overcast  
Wind Chill: 11°   Ceiling: 4700
Heat Index: 11°   Visibility: 10mi
Dew Point:   Wind: 13mph
Humidity: 63%   Direction: 300°WNW
Pressure: 29.94"   Gusts: 22mph
Location:  37.2994°N, 81.226°W
Report Text: KBLF 211852Z AUTO 30011G19KT 10SM BKN047 OVC055 11/04 A2994 RMK AO2 PK WND 29027/1815 SLP127 T01110044
Loading
Personal Weather Stations






























Interactive Weather Map
Tropical Storm Tracking
New forecast layout! Learn more

10-Day Weather Forecast

Advertisements
Track Severe Weather on mobile